createdAt,value
2019-03-24T00:00:16.993Z,103230.80
2019-03-24T00:02:46.374Z,103232.97
2019-03-24T00:05:15.766Z,103232.58
2019-03-24T00:07:45.166Z,103229.87
2019-03-24T00:10:14.758Z,103230.19
2019-03-24T00:12:44.143Z,103224.67
2019-03-24T00:15:13.954Z,103229.73
2019-03-24T00:17:42.583Z,103222.14
2019-03-24T00:20:12.439Z,103221.08
2019-03-24T00:22:41.831Z,103218.09
2019-03-24T00:25:11.351Z,103207.81
2019-03-24T00:27:40.745Z,103203.89
2019-03-24T00:30:12.158Z,103201.27
2019-03-24T00:32:41.541Z,103198.30
2019-03-24T00:35:11.235Z,103196.17
2019-03-24T00:37:40.637Z,103194.77
2019-03-24T00:40:10.435Z,103190.66
2019-03-24T00:42:39.067Z,103185.19
2019-03-24T00:45:09.948Z,103182.79
2019-03-24T00:47:39.370Z,103185.42
2019-03-24T00:50:08.992Z,103176.80
2019-03-24T00:52:38.373Z,103172.84
2019-03-24T00:55:08.469Z,103167.38
2019-03-24T00:57:37.970Z,103169.52
2019-03-24T01:00:11.628Z,103168.02
2019-03-24T01:02:41.004Z,103167.12
2019-03-24T01:05:10.545Z,103169.70
2019-03-24T01:07:40.002Z,103168.96
2019-03-24T01:10:11.003Z,103168.33
2019-03-24T01:12:40.394Z,103167.19
2019-03-24T01:15:10.030Z,103160.95
2019-03-24T01:17:39.585Z,103166.29
2019-03-24T01:20:09.304Z,103164.36
2019-03-24T01:22:37.994Z,103161.31
2019-03-24T01:25:07.743Z,103164.96
2019-03-24T01:27:36.382Z,103161.45
2019-03-24T01:30:26.665Z,103161.02
2019-03-24T01:32:56.049Z,103156.16
2019-03-24T01:35:26.379Z,103159.44
2019-03-24T01:37:55.795Z,103151.41
2019-03-24T01:40:25.182Z,103140.81
2019-03-24T01:42:54.638Z,103138.06
2019-03-24T01:45:24.070Z,103142.67
2019-03-24T01:47:53.459Z,103140.97
2019-03-24T01:50:22.838Z,103137.73
2019-03-24T01:52:52.238Z,103135.38
2019-03-24T01:55:21.641Z,103136.38
2019-03-24T01:57:51.003Z,103135.64
2019-03-24T02:00:20.486Z,103133.55
2019-03-24T02:02:49.876Z,103135.95
2019-03-24T02:05:19.258Z,103139.50
2019-03-24T02:07:48.660Z,103134.98
2019-03-24T02:10:18.179Z,103135.42
2019-03-24T02:12:47.576Z,103137.19
2019-03-24T02:15:17.120Z,103130.61
2019-03-24T02:17:46.505Z,103131.07
2019-03-24T02:20:16.023Z,103121.91
2019-03-24T02:22:45.429Z,103122.13
2019-03-24T02:25:14.811Z,103115.59
2019-03-24T02:27:44.211Z,103112.09
2019-03-24T02:30:13.889Z,103109.14
2019-03-24T02:32:43.279Z,103102.94
2019-03-24T02:35:12.755Z,103096.61
2019-03-24T02:37:42.148Z,103099.92
2019-03-24T02:40:12.043Z,103099.46
2019-03-24T02:42:41.455Z,103094.28
2019-03-24T02:45:11.785Z,103089.89
2019-03-24T02:47:41.270Z,103085.62
2019-03-24T02:50:11.942Z,103089.09
2019-03-24T02:52:41.317Z,103088.45
2019-03-24T02:55:11.036Z,103079.20
2019-03-24T02:57:40.664Z,103072.90
2019-03-24T03:00:11.255Z,103074.29
2019-03-24T03:02:40.651Z,103066.53
2019-03-24T03:05:11.066Z,103070.84
2019-03-24T03:07:40.467Z,103066.38
2019-03-24T03:10:10.880Z,103067.73
2019-03-24T03:12:40.346Z,103066.28
2019-03-24T03:15:11.420Z,103068.95
2019-03-24T03:17:40.808Z,103069.26
2019-03-24T03:20:10.906Z,103058.88
2019-03-24T03:22:40.541Z,103058.94
2019-03-24T03:25:10.349Z,103062.62
2019-03-24T03:27:39.821Z,103065.27
2019-03-24T03:30:10.130Z,103071.30
2019-03-24T03:32:39.632Z,103067.50
2019-03-24T03:35:09.723Z,103067.84
2019-03-24T03:37:39.137Z,103071.77
2019-03-24T03:40:09.515Z,103070.06
2019-03-24T03:42:40.099Z,103069.21
2019-03-24T03:45:11.406Z,103069.54
2019-03-24T03:47:41.149Z,103070.25
2019-03-24T03:50:09.954Z,103073.83
2019-03-24T03:52:39.598Z,103073.20
2019-03-24T03:55:09.793Z,103071.92
2019-03-24T03:57:39.204Z,103068.83
2019-03-24T04:00:10.425Z,103059.98
2019-03-24T04:02:39.833Z,103072.08
2019-03-24T04:05:09.354Z,103071.94
2019-03-24T04:07:38.794Z,103070.96
2019-03-24T04:10:08.643Z,103067.30
2019-03-24T04:12:37.280Z,103068.48
2019-03-24T04:15:08.616Z,103056.48
2019-03-24T04:17:38.037Z,103051.81
2019-03-24T04:20:07.834Z,103048.92
2019-03-24T04:22:36.533Z,103046.41
2019-03-24T04:25:07.788Z,103034.02
2019-03-24T04:27:37.158Z,103031.70
2019-03-24T04:30:07.783Z,103029.59
2019-03-24T04:32:37.176Z,103025.50
2019-03-24T04:35:09.087Z,103027.19
2019-03-24T04:37:38.481Z,103032.86
2019-03-24T04:40:08.948Z,103034.23
2019-03-24T04:42:38.330Z,103032.53
2019-03-24T04:45:08.225Z,103031.47
2019-03-24T04:47:37.615Z,103029.31
2019-03-24T04:50:08.813Z,103029.78
2019-03-24T04:52:38.317Z,103029.96
2019-03-24T04:55:08.377Z,103029.70
2019-03-24T04:57:37.838Z,103026.34
2019-03-24T05:00:10.533Z,103023.72
2019-03-24T05:02:39.923Z,103022.13
2019-03-24T05:05:09.718Z,103023.12
2019-03-24T05:07:40.171Z,103011.44
2019-03-24T05:10:36.671Z,103006.64
2019-03-24T05:13:29.330Z,103020.08
2019-03-24T05:16:03.884Z,103023.86
2019-03-24T05:18:50.055Z,103033.01
2019-03-24T05:21:51.712Z,103026.91
2019-03-24T05:24:23.000Z,103029.70
2019-03-24T05:27:35.440Z,103028.23
2019-03-24T05:29:54.765Z,103028.38
2019-03-24T05:35:15.594Z,103023.84
2019-03-24T05:37:45.160Z,103014.17
2019-03-24T05:40:14.641Z,103004.56
2019-03-24T05:42:44.193Z,103006.48
2019-03-24T05:45:18.463Z,102999.98
2019-03-24T05:48:00.393Z,102996.60
2019-03-24T05:50:29.781Z,102987.63
2019-03-24T05:52:59.164Z,102984.53
2019-03-24T05:55:28.655Z,102981.15
2019-03-24T05:58:05.219Z,102981.79
2019-03-24T06:04:05.763Z,102975.86
2019-03-24T06:06:53.095Z,102975.71
2019-03-24T06:09:32.316Z,102978.49
2019-03-24T06:12:11.703Z,102984.72
2019-03-24T06:14:44.679Z,102983.95
2019-03-24T06:18:08.444Z,102976.97
2019-03-24T06:20:38.005Z,102974.75
2019-03-24T06:23:07.372Z,102975.41
2019-03-24T06:25:37.011Z,102970.67
2019-03-24T06:28:06.589Z,102973.70
2019-03-24T06:30:36.037Z,102982.59
2019-03-24T06:33:05.514Z,102979.45
2019-03-24T06:35:34.958Z,102990.03
2019-03-24T06:38:04.632Z,102997.56
2019-03-24T06:40:34.054Z,103006.19
2019-03-24T06:43:03.444Z,103015.75
2019-03-24T06:45:32.827Z,103013.81
2019-03-24T06:48:02.209Z,103007.63
2019-03-24T06:50:31.611Z,103006.78
2019-03-24T06:53:01.008Z,103003.33
2019-03-24T06:55:30.398Z,102999.73
2019-03-24T06:57:59.886Z,102998.40
2019-03-24T07:00:29.307Z,102990.92
2019-03-24T07:05:47.630Z,102991.14
2019-03-24T07:12:51.355Z,103004.75
2019-03-24T07:15:20.215Z,103012.02
2019-03-24T07:17:49.624Z,103007.65
2019-03-24T07:20:19.030Z,103002.28
2019-03-24T07:22:48.441Z,102995.61
2019-03-24T07:25:17.833Z,102997.48
2019-03-24T07:27:47.256Z,102994.08
2019-03-24T07:30:34.502Z,102987.80
2019-03-24T07:33:03.992Z,102990.95
2019-03-24T07:35:33.390Z,102991.19
2019-03-24T07:38:02.812Z,102984.31
2019-03-24T07:40:32.206Z,102981.82
2019-03-24T07:43:01.836Z,102972.52
2019-03-24T07:45:31.220Z,102966.38
2019-03-24T07:48:00.622Z,102962.28
2019-03-24T07:50:30.017Z,102969.86
2019-03-24T07:52:59.406Z,102967.70
2019-03-24T07:55:28.805Z,102966.48
2019-03-24T07:57:58.269Z,102970.98
2019-03-24T08:00:33.565Z,102964.47
2019-03-24T08:03:03.015Z,102952.88
2019-03-24T08:05:32.409Z,102961.47
2019-03-24T08:08:01.815Z,102964.36
2019-03-24T08:10:31.209Z,102956.87
2019-03-24T08:13:00.602Z,102970.42
2019-03-24T08:15:30.001Z,102970.42
2019-03-24T08:17:59.393Z,102975.19
2019-03-24T08:20:28.790Z,102984.09
2019-03-24T08:22:58.212Z,102984.77
2019-03-24T08:25:27.586Z,102977.75
2019-03-24T08:27:57.002Z,102980.25
2019-03-24T08:30:34.496Z,102983.91
2019-03-24T08:33:04.503Z,102984.25
2019-03-24T08:35:33.897Z,102992.41
2019-03-24T08:38:03.387Z,102993.24
2019-03-24T08:40:32.779Z,102995.95
2019-03-24T08:43:02.236Z,102996.47
2019-03-24T08:45:32.080Z,102988.29
2019-03-24T08:48:00.723Z,102972.16
2019-03-24T08:50:30.085Z,102975.14
2019-03-24T08:52:59.474Z,102972.09
2019-03-24T08:55:28.876Z,102971.16
2019-03-24T08:57:58.284Z,102963.78
2019-03-24T09:00:30.850Z,102946.21
2019-03-24T09:02:58.799Z,102943.91
2019-03-24T09:05:28.190Z,102943.72
2019-03-24T09:07:57.604Z,102946.55
2019-03-24T09:10:27.004Z,102936.70
2019-03-24T09:12:56.633Z,102940.14
2019-03-24T09:15:26.036Z,102924.49
2019-03-24T09:17:55.429Z,102926.40
2019-03-24T09:20:24.818Z,102922.39
2019-03-24T09:22:54.240Z,102926.02
2019-03-24T09:25:23.695Z,102922.56
2019-03-24T09:27:53.107Z,102929.67
2019-03-24T09:30:35.026Z,102936.75
2019-03-24T09:33:04.763Z,102946.30
2019-03-24T09:35:34.217Z,102951.54
2019-03-24T09:38:03.626Z,102956.69
2019-03-24T09:40:35.242Z,102954.41
2019-03-24T09:43:06.345Z,102952.92
2019-03-24T09:45:35.824Z,102953.50
2019-03-24T09:48:05.559Z,102951.38
2019-03-24T09:50:34.383Z,102948.23
2019-03-24T09:53:03.829Z,102937.94
2019-03-24T09:55:33.257Z,102937.33
2019-03-24T09:58:02.690Z,102940.86
2019-03-24T10:00:32.088Z,102943.09
2019-03-24T10:03:01.493Z,102945.27
2019-03-24T10:05:30.907Z,102941.33
2019-03-24T10:08:00.398Z,102936.14
2019-03-24T10:10:48.600Z,102933.18
2019-03-24T10:13:18.345Z,102930.59
2019-03-24T10:15:47.170Z,102922.55
2019-03-24T10:24:32.115Z,102906.30
2019-03-24T10:24:52.393Z,102910.75
2019-03-24T10:29:45.872Z,102904.19
2019-03-24T10:32:18.269Z,102899.08
2019-03-24T10:35:09.403Z,102900.95
2019-03-24T10:43:43.634Z,102887.94
2019-03-24T10:46:16.195Z,102884.20
2019-03-24T10:47:03.472Z,102896.52
2019-03-24T10:48:54.970Z,102887.67
2019-03-24T10:52:28.393Z,102888.51
2019-03-24T10:57:55.875Z,102894.41
2019-03-24T11:04:10.843Z,102905.42
2019-03-24T11:06:40.224Z,102906.62
2019-03-24T11:12:49.886Z,102900.12
2019-03-24T11:16:05.091Z,102898.50
2019-03-24T11:18:27.371Z,102895.51
2019-03-24T11:20:58.413Z,102900.03
2019-03-24T11:23:27.801Z,102894.63
2019-03-24T11:27:04.420Z,102889.07
2019-03-24T11:29:33.836Z,102878.38
2019-03-24T11:32:03.340Z,102873.58
2019-03-24T11:38:28.775Z,102863.15
2019-03-24T11:41:05.683Z,102866.38
2019-03-24T11:47:10.705Z,102857.41
2019-03-24T11:49:45.886Z,102862.02
2019-03-24T11:55:16.697Z,102847.75
2019-03-24T11:58:16.718Z,102844.73
2019-03-24T12:01:37.779Z,102840.43
2019-03-24T12:04:03.419Z,102835.34
2019-03-24T12:09:17.234Z,102822.90
2019-03-24T12:11:49.840Z,102816.42
2019-03-24T12:17:21.479Z,102809.09
2019-03-24T12:22:58.502Z,102807.92
2019-03-24T12:25:37.328Z,102796.01
2019-03-24T12:28:29.321Z,102788.30
2019-03-24T12:31:26.262Z,102781.35
2019-03-24T12:34:15.457Z,102774.89
2019-03-24T12:36:46.553Z,102771.57
2019-03-24T12:39:27.836Z,102766.50
2019-03-24T12:45:21.228Z,102745.44
2019-03-24T12:48:04.060Z,102741.36
2019-03-24T12:50:33.355Z,102734.64
2019-03-24T12:53:02.858Z,102737.62
2019-03-24T12:55:36.015Z,102741.97
2019-03-24T12:58:05.606Z,102738.61
2019-03-24T13:01:14.474Z,102727.91
2019-03-24T13:03:35.909Z,102724.62
2019-03-24T13:06:18.236Z,102728.16
2019-03-24T13:08:53.757Z,102727.34
2019-03-24T13:11:34.849Z,102720.58
2019-03-24T13:14:55.908Z,102718.31
2019-03-24T13:17:37.279Z,102713.33
2019-03-24T13:20:19.545Z,102712.44
2019-03-24T13:26:04.415Z,102711.22
2019-03-24T13:28:47.787Z,102710.84
2019-03-24T13:31:17.216Z,102704.66
2019-03-24T13:37:14.928Z,102704.00
2019-03-24T13:39:59.263Z,102695.82
2019-03-24T13:42:49.038Z,102692.93
2019-03-24T13:48:50.744Z,102684.70
2019-03-24T13:57:44.240Z,102683.48
2019-03-24T14:00:15.947Z,102679.31
2019-03-24T14:02:53.047Z,102676.88
2019-03-24T14:05:37.783Z,102668.18
2019-03-24T14:11:42.858Z,102666.47
2019-03-24T14:17:24.678Z,102653.21
2019-03-24T14:19:54.074Z,102653.25
2019-03-24T14:22:23.565Z,102656.98
2019-03-24T14:25:24.289Z,102657.71
2019-03-24T14:31:05.500Z,102649.16
2019-03-24T14:33:55.968Z,102643.87
2019-03-24T14:37:11.797Z,102645.14
2019-03-24T14:45:29.570Z,102633.98
2019-03-24T14:49:00.948Z,102631.95
2019-03-24T14:51:29.931Z,102636.92
2019-03-24T14:54:47.830Z,102636.94
2019-03-24T14:57:24.055Z,102627.38
2019-03-24T15:00:18.572Z,102631.45
2019-03-24T15:03:26.812Z,102623.58
2019-03-24T15:06:20.197Z,102611.21
2019-03-24T15:08:57.371Z,102606.00
2019-03-24T15:11:29.812Z,102599.49
2019-03-24T15:13:59.304Z,102602.34
2019-03-24T15:19:34.083Z,102601.20
2019-03-24T15:22:15.558Z,102604.17
2019-03-24T15:24:44.934Z,102592.98
2019-03-24T15:27:14.329Z,102589.73
2019-03-24T15:30:43.107Z,102585.69
2019-03-24T15:33:31.537Z,102585.16
2019-03-24T15:39:10.735Z,102586.95
2019-03-24T15:44:33.036Z,102570.95
2019-03-24T15:50:29.694Z,102562.80
2019-03-24T15:53:06.072Z,102567.53
2019-03-24T15:55:35.657Z,102569.31
2019-03-24T16:00:59.391Z,102570.97
2019-03-24T16:03:28.770Z,102572.95
2019-03-24T16:12:31.495Z,102567.70
2019-03-24T16:19:41.062Z,102557.80
2019-03-24T16:29:17.972Z,102562.58
2019-03-24T16:32:45.623Z,102560.78
2019-03-24T16:37:56.098Z,102553.63
2019-03-24T16:50:17.151Z,102544.55
2019-03-24T16:52:46.655Z,102534.28
2019-03-24T16:56:39.082Z,102530.73
2019-03-24T16:58:53.353Z,102540.67
2019-03-24T17:01:22.996Z,102537.89
2019-03-24T17:05:14.987Z,102536.73
2019-03-24T17:06:50.345Z,102538.27
2019-03-24T17:09:55.988Z,102527.84
2019-03-24T17:12:37.773Z,102524.08
2019-03-24T17:25:24.519Z,102504.58
2019-03-24T17:28:04.694Z,102507.06
2019-03-24T17:30:34.290Z,102512.00
2019-03-24T17:33:16.151Z,102504.11
2019-03-24T17:36:23.873Z,102499.39
2019-03-24T17:40:27.351Z,102489.31
2019-03-24T17:42:46.432Z,102487.53
2019-03-24T17:47:11.011Z,102486.34
2019-03-24T17:55:00.806Z,102481.26
2019-03-24T17:57:35.323Z,102480.84
2019-03-24T18:01:03.129Z,102473.32
2019-03-24T18:06:20.543Z,102485.43
2019-03-24T18:09:38.878Z,102487.94
2019-03-24T18:12:32.752Z,102484.56
2019-03-24T18:15:40.957Z,102482.56
2019-03-24T18:31:28.282Z,102490.13
2019-03-24T18:33:57.742Z,102490.66
2019-03-24T18:36:27.130Z,102493.52
2019-03-24T18:38:56.534Z,102490.80
2019-03-24T18:41:25.923Z,102486.77
2019-03-24T18:43:55.317Z,102486.99
2019-03-24T18:46:24.723Z,102484.17
2019-03-24T18:48:54.117Z,102479.89
2019-03-24T18:51:23.516Z,102477.34
2019-03-24T18:53:52.931Z,102472.33
2019-03-24T18:56:22.324Z,102470.59
2019-03-24T18:58:51.726Z,102467.78
2019-03-24T19:01:21.129Z,102472.83
2019-03-24T19:03:50.531Z,102474.19
2019-03-24T19:06:19.912Z,102473.72
2019-03-24T19:08:49.347Z,102474.49
2019-03-24T19:11:18.736Z,102470.52
2019-03-24T19:13:48.121Z,102471.26
2019-03-24T19:16:17.536Z,102465.60
2019-03-24T19:18:46.928Z,102465.62
2019-03-24T19:21:16.340Z,102457.29
2019-03-24T19:23:55.994Z,102455.80
2019-03-24T19:26:25.380Z,102447.55
2019-03-24T19:28:54.847Z,102445.41
2019-03-24T19:31:24.290Z,102453.41
2019-03-24T19:33:53.850Z,102451.23
2019-03-24T19:36:23.239Z,102455.36
2019-03-24T19:38:53.113Z,102452.32
2019-03-24T19:41:22.787Z,102448.50
2019-03-24T19:43:52.171Z,102455.19
2019-03-24T19:46:32.105Z,102447.42
2019-03-24T19:49:01.489Z,102441.34
2019-03-24T19:51:30.879Z,102436.82
2019-03-24T19:54:00.334Z,102438.44
2019-03-24T19:56:29.723Z,102435.91
2019-03-24T19:58:59.135Z,102424.69
2019-03-24T20:01:31.786Z,102423.69
2019-03-24T20:04:01.206Z,102417.05
2019-03-24T20:06:30.603Z,102416.70
2019-03-24T20:09:02.691Z,102416.80
2019-03-24T20:11:32.083Z,102411.84
2019-03-24T20:14:01.525Z,102407.94
2019-03-24T20:16:30.955Z,102402.76
2019-03-24T20:19:00.413Z,102404.13
2019-03-24T20:21:32.606Z,102402.53
2019-03-24T20:24:01.990Z,102398.44
2019-03-24T20:26:31.361Z,102398.16
2019-03-24T20:29:00.822Z,102392.25
2019-03-24T20:32:18.029Z,102387.33
2019-03-24T20:34:46.958Z,102385.61
2019-03-24T20:37:16.529Z,102383.17
2019-03-24T20:39:45.950Z,102380.50
2019-03-24T20:42:15.380Z,102372.22
2019-03-24T20:44:44.781Z,102367.39
2019-03-24T20:47:16.013Z,102361.79
2019-03-24T20:49:47.478Z,102362.67
2019-03-24T20:52:16.647Z,102361.58
2019-03-24T20:54:52.231Z,102361.81
2019-03-24T20:57:21.647Z,102359.25
2019-03-24T20:59:55.705Z,102342.51
2019-03-24T21:02:25.121Z,102341.58
2019-03-24T21:04:54.535Z,102341.59
2019-03-24T21:07:23.935Z,102334.64
2019-03-24T21:09:53.329Z,102327.59
2019-03-24T21:12:22.722Z,102321.56
2019-03-24T21:14:52.128Z,102309.03
2019-03-24T21:17:21.524Z,102309.11
2019-03-24T21:19:50.931Z,102315.05
2019-03-24T21:22:20.349Z,102306.52
2019-03-24T21:24:49.744Z,102302.30
2019-03-24T21:27:19.128Z,102293.50
2019-03-24T21:29:48.528Z,102294.34
2019-03-24T21:32:17.916Z,102286.70
2019-03-24T21:34:47.309Z,102281.30
2019-03-24T21:37:16.712Z,102281.33
2019-03-24T21:39:46.158Z,102278.91
2019-03-24T21:42:15.568Z,102268.70
2019-03-24T21:44:44.994Z,102261.28
2019-03-24T21:47:14.375Z,102260.70
2019-03-24T21:49:43.773Z,102253.52
2019-03-24T21:52:13.176Z,102253.01
2019-03-24T21:54:42.574Z,102247.98
2019-03-24T21:57:11.961Z,102242.11
2019-03-24T21:59:41.379Z,102235.99
2019-03-24T22:02:10.837Z,102233.87
2019-03-24T22:04:40.243Z,102227.59
2019-03-24T22:07:09.679Z,102220.28
2019-03-24T22:09:39.077Z,102214.09
2019-03-24T22:12:08.711Z,102216.13
2019-03-24T22:14:38.120Z,102199.70
2019-03-24T22:17:07.518Z,102196.33
2019-03-24T22:19:38.735Z,102189.52
2019-03-24T22:22:08.194Z,102192.20
2019-03-24T22:24:37.588Z,102183.28
2019-03-24T22:27:06.973Z,102179.03
2019-03-24T22:29:36.383Z,102176.39
2019-03-24T22:32:05.773Z,102169.44
2019-03-24T22:34:35.170Z,102168.19
2019-03-24T22:37:15.479Z,102159.42
2019-03-24T22:39:35.774Z,102156.02
2019-03-24T22:42:05.160Z,102159.23
2019-03-24T22:44:34.570Z,102151.92
2019-03-24T22:47:03.965Z,102144.63
2019-03-24T22:49:33.358Z,102143.30
2019-03-24T22:52:07.271Z,102138.31
2019-03-24T22:54:33.885Z,102131.45
2019-03-24T22:57:03.277Z,102129.43
2019-03-24T22:59:32.682Z,102122.95
2019-03-24T23:02:02.071Z,102116.87
2019-03-24T23:04:31.464Z,102117.84
2019-03-24T23:07:00.877Z,102101.02
2019-03-24T23:09:30.267Z,102087.84
2019-03-24T23:11:59.665Z,102079.55
2019-03-24T23:14:29.074Z,102074.95
2019-03-24T23:16:58.472Z,102067.12
2019-03-24T23:19:27.870Z,102056.27
2019-03-24T23:21:57.284Z,102061.86
2019-03-24T23:24:26.674Z,102047.73
2019-03-24T23:26:56.062Z,102048.56
2019-03-24T23:29:25.545Z,102036.66
2019-03-24T23:31:55.018Z,102031.74
2019-03-24T23:34:24.418Z,102021.25
2019-03-24T23:36:53.833Z,102020.55
2019-03-24T23:39:23.224Z,102009.20
2019-03-24T23:41:52.616Z,101995.43
2019-03-24T23:44:22.026Z,101993.26
2019-03-24T23:46:51.421Z,101993.00
2019-03-24T23:49:20.812Z,101985.16
2019-03-24T23:51:50.222Z,101975.61
2019-03-24T23:54:26.857Z,101973.61
2019-03-24T23:56:50.964Z,101960.78
2019-03-24T23:59:20.377Z,101958.52
